sensor_id;sensor_type;location;lat;lon;timestamp;temperature;humidity
26081;DHT22;13991;51.174;4.438;2023-10-08T00:01:15;17.30;99.90
26081;DHT22;13991;51.174;4.438;2023-10-08T00:03:43;17.40;99.90
26081;DHT22;13991;51.174;4.438;2023-10-08T00:06:15;17.50;99.90
26081;DHT22;13991;51.174;4.438;2023-10-08T00:08:41;17.60;99.90
26081;DHT22;13991;51.174;4.438;2023-10-08T00:11:07;17.60;99.90
26081;DHT22;13991;51.174;4.438;2023-10-08T00:13:36;17.60;99.90
26081;DHT22;13991;51.174;4.438;2023-10-08T00:16:11;17.50;99.90
26081;DHT22;13991;51.174;4.438;2023-10-08T00:18:41;17.40;99.90
26081;DHT22;13991;51.174;4.438;2023-10-08T00:21:08;17.20;99.90
26081;DHT22;13991;51.174;4.438;2023-10-08T00:23:36;17.20;99.90
26081;DHT22;13991;51.174;4.438;2023-10-08T00:26:07;17.30;99.90
26081;DHT22;13991;51.174;4.438;2023-10-08T00:28:34;17.40;99.90
26081;DHT22;13991;51.174;4.438;2023-10-08T00:31:01;17.40;99.90
26081;DHT22;13991;51.174;4.438;2023-10-08T00:33:47;17.40;99.90
26081;DHT22;13991;51.174;4.438;2023-10-08T00:36:13;17.40;99.90
26081;DHT22;13991;51.174;4.438;2023-10-08T00:38:46;17.20;99.90
26081;DHT22;13991;51.174;4.438;2023-10-08T00:41:25;17.20;99.90
26081;DHT22;13991;51.174;4.438;2023-10-08T00:43:54;17.20;99.90
26081;DHT22;13991;51.174;4.438;2023-10-08T00:46:25;17.20;99.90
26081;DHT22;13991;51.174;4.438;2023-10-08T00:48:57;17.20;99.90
26081;DHT22;13991;51.174;4.438;2023-10-08T00:51:25;17.20;99.90
26081;DHT22;13991;51.174;4.438;2023-10-08T00:53:59;17.10;99.90
26081;DHT22;13991;51.174;4.438;2023-10-08T00:56:32;17.10;99.90
26081;DHT22;13991;51.174;4.438;2023-10-08T00:59:16;17.20;99.90
26081;DHT22;13991;51.174;4.438;2023-10-08T01:01:46;17.20;99.90
26081;DHT22;13991;51.174;4.438;2023-10-08T01:04:21;17.20;99.90
26081;DHT22;13991;51.174;4.438;2023-10-08T01:06:57;17.20;99.90
26081;DHT22;13991;51.174;4.438;2023-10-08T01:09:27;17.20;99.90
26081;DHT22;13991;51.174;4.438;2023-10-08T01:12:10;17.20;99.90
26081;DHT22;13991;51.174;4.438;2023-10-08T01:14:41;17.10;99.90
26081;DHT22;13991;51.174;4.438;2023-10-08T01:17:13;17.00;99.90
26081;DHT22;13991;51.174;4.438;2023-10-08T01:19:44;17.00;99.90
26081;DHT22;13991;51.174;4.438;2023-10-08T01:22:16;16.90;99.90
26081;DHT22;13991;51.174;4.438;2023-10-08T01:24:44;16.80;99.90
26081;DHT22;13991;51.174;4.438;2023-10-08T01:27:11;16.80;99.90
26081;DHT22;13991;51.174;4.438;2023-10-08T01:29:40;16.90;99.90
26081;DHT22;13991;51.174;4.438;2023-10-08T01:32:09;16.90;99.90
26081;DHT22;13991;51.174;4.438;2023-10-08T01:34:36;16.80;99.90
26081;DHT22;13991;51.174;4.438;2023-10-08T01:37:02;16.70;99.90
26081;DHT22;13991;51.174;4.438;2023-10-08T01:39:36;16.80;99.90
26081;DHT22;13991;51.174;4.438;2023-10-08T01:42:01;16.70;99.90
26081;DHT22;13991;51.174;4.438;2023-10-08T01:44:28;16.70;99.90
26081;DHT22;13991;51.174;4.438;2023-10-08T01:46:56;16.60;99.90
26081;DHT22;13991;51.174;4.438;2023-10-08T01:49:23;16.70;99.90
26081;DHT22;13991;51.174;4.438;2023-10-08T01:51:54;16.50;99.90
26081;DHT22;13991;51.174;4.438;2023-10-08T01:54:20;16.50;99.90
26081;DHT22;13991;51.174;4.438;2023-10-08T01:56:47;16.50;99.90
26081;DHT22;13991;51.174;4.438;2023-10-08T01:59:14;16.50;99.90
26081;DHT22;13991;51.174;4.438;2023-10-08T02:01:41;16.60;99.90
26081;DHT22;13991;51.174;4.438;2023-10-08T02:04:09;16.60;99.90
26081;DHT22;13991;51.174;4.438;2023-10-08T02:06:37;16.60;99.90
26081;DHT22;13991;51.174;4.438;2023-10-08T02:09:05;16.60;99.90
26081;DHT22;13991;51.174;4.438;2023-10-08T02:11:49;16.60;99.90
26081;DHT22;13991;51.174;4.438;2023-10-08T02:14:19;16.60;99.90
26081;DHT22;13991;51.174;4.438;2023-10-08T02:16:46;16.60;99.90
26081;DHT22;13991;51.174;4.438;2023-10-08T02:19:13;16.50;99.90
26081;DHT22;13991;51.174;4.438;2023-10-08T02:21:39;16.50;99.90
26081;DHT22;13991;51.174;4.438;2023-10-08T02:24:06;16.60;99.90
26081;DHT22;13991;51.174;4.438;2023-10-08T02:26:36;16.60;99.90
26081;DHT22;13991;51.174;4.438;2023-10-08T02:29:03;16.50;99.90
26081;DHT22;13991;51.174;4.438;2023-10-08T02:31:39;16.50;99.90
26081;DHT22;13991;51.174;4.438;2023-10-08T02:34:08;16.50;99.90
26081;DHT22;13991;51.174;4.438;2023-10-08T02:36:37;16.60;99.90
26081;DHT22;13991;51.174;4.438;2023-10-08T02:39:03;16.60;99.90
26081;DHT22;13991;51.174;4.438;2023-10-08T02:41:40;16.60;99.90
26081;DHT22;13991;51.174;4.438;2023-10-08T02:44:07;16.60;99.90
26081;DHT22;13991;51.174;4.438;2023-10-08T02:46:41;16.60;99.90
26081;DHT22;13991;51.174;4.438;2023-10-08T02:49:08;16.60;99.90
26081;DHT22;13991;51.174;4.438;2023-10-08T02:51:37;16.50;99.90
26081;DHT22;13991;51.174;4.438;2023-10-08T02:54:04;16.50;99.90
26081;DHT22;13991;51.174;4.438;2023-10-08T02:56:32;16.60;99.90
26081;DHT22;13991;51.174;4.438;2023-10-08T02:58:58;16.50;99.90
26081;DHT22;13991;51.174;4.438;2023-10-08T03:01:26;16.60;99.90
26081;DHT22;13991;51.174;4.438;2023-10-08T03:03:51;16.50;99.90
26081;DHT22;13991;51.174;4.438;2023-10-08T03:06:28;16.50;99.90
26081;DHT22;13991;51.174;4.438;2023-10-08T03:08:57;16.50;99.90
26081;DHT22;13991;51.174;4.438;2023-10-08T03:11:29;16.50;99.90
26081;DHT22;13991;51.174;4.438;2023-10-08T03:13:56;16.50;99.90
26081;DHT22;13991;51.174;4.438;2023-10-08T03:16:22;16.50;99.90
26081;DHT22;13991;51.174;4.438;2023-10-08T03:18:54;16.40;99.90
26081;DHT22;13991;51.174;4.438;2023-10-08T03:21:22;16.40;99.90
26081;DHT22;13991;51.174;4.438;2023-10-08T03:24:08;16.40;99.90
26081;DHT22;13991;51.174;4.438;2023-10-08T03:27:09;16.30;99.90
26081;DHT22;13991;51.174;4.438;2023-10-08T03:29:40;16.40;99.90
26081;DHT22;13991;51.174;4.438;2023-10-08T03:32:12;16.30;99.90
26081;DHT22;13991;51.174;4.438;2023-10-08T03:34:49;16.40;99.90
26081;DHT22;13991;51.174;4.438;2023-10-08T03:37:17;16.30;99.90
26081;DHT22;13991;51.174;4.438;2023-10-08T03:39:49;16.30;99.90
26081;DHT22;13991;51.174;4.438;2023-10-08T03:42:26;16.30;99.90
26081;DHT22;13991;51.174;4.438;2023-10-08T03:44:59;16.30;99.90
26081;DHT22;13991;51.174;4.438;2023-10-08T03:47:36;16.30;99.90
26081;DHT22;13991;51.174;4.438;2023-10-08T03:50:07;16.30;99.90
26081;DHT22;13991;51.174;4.438;2023-10-08T03:52:35;16.30;99.90
26081;DHT22;13991;51.174;4.438;2023-10-08T03:55:04;16.30;99.90
26081;DHT22;13991;51.174;4.438;2023-10-08T03:57:47;16.40;99.90
26081;DHT22;13991;51.174;4.438;2023-10-08T04:00:22;16.30;99.90
26081;DHT22;13991;51.174;4.438;2023-10-08T04:02:54;16.20;99.90
26081;DHT22;13991;51.174;4.438;2023-10-08T04:05:27;16.20;99.90
26081;DHT22;13991;51.174;4.438;2023-10-08T04:07:58;16.10;99.90
26081;DHT22;13991;51.174;4.438;2023-10-08T04:10:23;16.10;99.90
26081;DHT22;13991;51.174;4.438;2023-10-08T04:13:24;16.10;99.90
26081;DHT22;13991;51.174;4.438;2023-10-08T04:15:50;16.10;99.90
26081;DHT22;13991;51.174;4.438;2023-10-08T04:18:15;16.20;99.90
26081;DHT22;13991;51.174;4.438;2023-10-08T04:20:41;16.20;99.90
26081;DHT22;13991;51.174;4.438;2023-10-08T04:23:25;16.10;99.90
26081;DHT22;13991;51.174;4.438;2023-10-08T04:25:51;16.10;99.90
26081;DHT22;13991;51.174;4.438;2023-10-08T04:28:20;16.10;99.90
26081;DHT22;13991;51.174;4.438;2023-10-08T04:30:47;16.10;99.90
26081;DHT22;13991;51.174;4.438;2023-10-08T04:33:13;16.10;99.90
26081;DHT22;13991;51.174;4.438;2023-10-08T04:35:44;16.00;99.90
26081;DHT22;13991;51.174;4.438;2023-10-08T04:38:27;16.00;99.90
26081;DHT22;13991;51.174;4.438;2023-10-08T04:41:05;16.00;99.90
26081;DHT22;13991;51.174;4.438;2023-10-08T04:43:34;16.00;99.90
26081;DHT22;13991;51.174;4.438;2023-10-08T04:46:03;16.00;99.90
26081;DHT22;13991;51.174;4.438;2023-10-08T04:48:48;16.00;99.90
26081;DHT22;13991;51.174;4.438;2023-10-08T04:51:15;16.00;99.90
26081;DHT22;13991;51.174;4.438;2023-10-08T04:53:43;15.90;99.90
26081;DHT22;13991;51.174;4.438;2023-10-08T04:56:11;15.90;99.90
26081;DHT22;13991;51.174;4.438;2023-10-08T04:58:45;15.90;99.90
26081;DHT22;13991;51.174;4.438;2023-10-08T05:01:15;16.00;99.90
26081;DHT22;13991;51.174;4.438;2023-10-08T05:04:04;16.00;99.90
26081;DHT22;13991;51.174;4.438;2023-10-08T05:06:31;15.90;99.90
26081;DHT22;13991;51.174;4.438;2023-10-08T05:09:06;15.90;99.90
26081;DHT22;13991;51.174;4.438;2023-10-08T05:11:52;15.90;99.90
26081;DHT22;13991;51.174;4.438;2023-10-08T05:14:23;15.90;99.90
26081;DHT22;13991;51.174;4.438;2023-10-08T05:16:59;15.90;99.90
26081;DHT22;13991;51.174;4.438;2023-10-08T05:19:43;15.90;99.90
26081;DHT22;13991;51.174;4.438;2023-10-08T05:22:27;15.90;99.90
26081;DHT22;13991;51.174;4.438;2023-10-08T05:24:53;15.90;99.90
26081;DHT22;13991;51.174;4.438;2023-10-08T05:27:46;15.90;99.90
26081;DHT22;13991;51.174;4.438;2023-10-08T05:30:19;15.90;99.90
26081;DHT22;13991;51.174;4.438;2023-10-08T05:32:56;15.90;99.90
26081;DHT22;13991;51.174;4.438;2023-10-08T05:35:35;15.90;99.90
26081;DHT22;13991;51.174;4.438;2023-10-08T05:40:52;15.80;99.90
26081;DHT22;13991;51.174;4.438;2023-10-08T05:43:29;15.80;99.90
26081;DHT22;13991;51.174;4.438;2023-10-08T05:46:04;15.80;99.90
26081;DHT22;13991;51.174;4.438;2023-10-08T05:48:58;15.80;99.90
26081;DHT22;13991;51.174;4.438;2023-10-08T05:51:34;15.90;99.90
26081;DHT22;13991;51.174;4.438;2023-10-08T05:54:20;15.80;99.90
26081;DHT22;13991;51.174;4.438;2023-10-08T05:56:53;15.70;99.90
26081;DHT22;13991;51.174;4.438;2023-10-08T05:59:46;15.70;99.90
26081;DHT22;13991;51.174;4.438;2023-10-08T06:02:30;15.80;99.90
26081;DHT22;13991;51.174;4.438;2023-10-08T06:05:00;15.70;99.90
26081;DHT22;13991;51.174;4.438;2023-10-08T06:07:40;15.80;99.90
26081;DHT22;13991;51.174;4.438;2023-10-08T06:10:29;15.80;99.90
26081;DHT22;13991;51.174;4.438;2023-10-08T06:13:10;15.90;99.90
26081;DHT22;13991;51.174;4.438;2023-10-08T06:15:46;15.90;99.90
26081;DHT22;13991;51.174;4.438;2023-10-08T06:18:23;15.90;99.90
26081;DHT22;13991;51.174;4.438;2023-10-08T06:20:52;15.90;99.90
26081;DHT22;13991;51.174;4.438;2023-10-08T06:23:20;15.90;99.90
26081;DHT22;13991;51.174;4.438;2023-10-08T06:25:53;15.90;99.90
26081;DHT22;13991;51.174;4.438;2023-10-08T06:28:22;15.90;99.90
26081;DHT22;13991;51.174;4.438;2023-10-08T06:30:52;16.00;99.90
26081;DHT22;13991;51.174;4.438;2023-10-08T06:33:20;16.00;99.90
26081;DHT22;13991;51.174;4.438;2023-10-08T06:35:51;16.00;99.90
26081;DHT22;13991;51.174;4.438;2023-10-08T06:38:52;16.10;99.90
26081;DHT22;13991;51.174;4.438;2023-10-08T06:41:17;16.10;99.90
26081;DHT22;13991;51.174;4.438;2023-10-08T06:43:48;16.10;99.90
26081;DHT22;13991;51.174;4.438;2023-10-08T06:46:28;16.20;99.90
26081;DHT22;13991;51.174;4.438;2023-10-08T06:48:58;16.20;99.90
26081;DHT22;13991;51.174;4.438;2023-10-08T06:51:24;16.30;99.90
26081;DHT22;13991;51.174;4.438;2023-10-08T06:53:51;16.30;99.90
26081;DHT22;13991;51.174;4.438;2023-10-08T06:56:17;16.30;99.90
26081;DHT22;13991;51.174;4.438;2023-10-08T06:58:45;16.30;99.90
26081;DHT22;13991;51.174;4.438;2023-10-08T07:01:18;16.40;99.90
26081;DHT22;13991;51.174;4.438;2023-10-08T07:03:50;16.40;99.90
26081;DHT22;13991;51.174;4.438;2023-10-08T07:06:17;16.50;99.90
26081;DHT22;13991;51.174;4.438;2023-10-08T07:08:51;16.50;99.90
26081;DHT22;13991;51.174;4.438;2023-10-08T07:11:21;16.50;99.90
26081;DHT22;13991;51.174;4.438;2023-10-08T07:13:47;16.60;99.90
26081;DHT22;13991;51.174;4.438;2023-10-08T07:16:13;16.60;99.90
26081;DHT22;13991;51.174;4.438;2023-10-08T07:18:43;16.70;99.90
26081;DHT22;13991;51.174;4.438;2023-10-08T07:21:16;16.70;99.90
26081;DHT22;13991;51.174;4.438;2023-10-08T07:23:42;16.80;99.90
26081;DHT22;13991;51.174;4.438;2023-10-08T07:26:28;16.70;99.90
26081;DHT22;13991;51.174;4.438;2023-10-08T07:29:06;16.70;99.90
26081;DHT22;13991;51.174;4.438;2023-10-08T07:31:37;16.80;99.90
26081;DHT22;13991;51.174;4.438;2023-10-08T07:34:03;16.80;99.90
26081;DHT22;13991;51.174;4.438;2023-10-08T07:36:47;17.00;99.90
26081;DHT22;13991;51.174;4.438;2023-10-08T07:39:15;17.00;99.90
26081;DHT22;13991;51.174;4.438;2023-10-08T07:42:03;17.10;99.90
26081;DHT22;13991;51.174;4.438;2023-10-08T07:44:34;17.10;99.90
26081;DHT22;13991;51.174;4.438;2023-10-08T07:47:05;17.20;99.90
26081;DHT22;13991;51.174;4.438;2023-10-08T07:49:36;17.20;99.90
26081;DHT22;13991;51.174;4.438;2023-10-08T07:52:01;17.30;99.90
26081;DHT22;13991;51.174;4.438;2023-10-08T07:54:30;17.40;99.90
26081;DHT22;13991;51.174;4.438;2023-10-08T07:57:00;17.50;99.90
26081;DHT22;13991;51.174;4.438;2023-10-08T07:59:36;17.50;99.90
26081;DHT22;13991;51.174;4.438;2023-10-08T08:02:07;17.60;99.90
26081;DHT22;13991;51.174;4.438;2023-10-08T08:04:42;17.70;99.90
26081;DHT22;13991;51.174;4.438;2023-10-08T08:07:12;17.80;99.90
26081;DHT22;13991;51.174;4.438;2023-10-08T08:09:42;17.90;99.90
26081;DHT22;13991;51.174;4.438;2023-10-08T08:12:13;18.00;99.90
26081;DHT22;13991;51.174;4.438;2023-10-08T08:14:39;18.10;99.90
26081;DHT22;13991;51.174;4.438;2023-10-08T08:17:07;18.10;99.90
26081;DHT22;13991;51.174;4.438;2023-10-08T08:19:43;18.20;99.90
26081;DHT22;13991;51.174;4.438;2023-10-08T08:22:21;18.30;99.90
26081;DHT22;13991;51.174;4.438;2023-10-08T08:24:54;18.40;99.90
26081;DHT22;13991;51.174;4.438;2023-10-08T08:27:43;18.50;99.90
26081;DHT22;13991;51.174;4.438;2023-10-08T08:30:12;18.60;99.90
26081;DHT22;13991;51.174;4.438;2023-10-08T08:32:42;18.60;99.90
26081;DHT22;13991;51.174;4.438;2023-10-08T08:35:13;18.70;99.90
26081;DHT22;13991;51.174;4.438;2023-10-08T08:37:42;18.80;99.90
26081;DHT22;13991;51.174;4.438;2023-10-08T08:40:08;19.00;99.90
26081;DHT22;13991;51.174;4.438;2023-10-08T08:42:35;19.00;99.90
26081;DHT22;13991;51.174;4.438;2023-10-08T08:45:04;19.10;99.90
26081;DHT22;13991;51.174;4.438;2023-10-08T08:47:35;19.10;99.90
26081;DHT22;13991;51.174;4.438;2023-10-08T08:50:02;19.10;99.90
26081;DHT22;13991;51.174;4.438;2023-10-08T08:52:38;19.20;99.90
26081;DHT22;13991;51.174;4.438;2023-10-08T08:55:06;19.30;99.90
26081;DHT22;13991;51.174;4.438;2023-10-08T08:57:41;19.30;99.90
26081;DHT22;13991;51.174;4.438;2023-10-08T09:00:08;19.40;99.90
26081;DHT22;13991;51.174;4.438;2023-10-08T09:02:47;19.50;99.90
26081;DHT22;13991;51.174;4.438;2023-10-08T09:05:13;19.50;99.90
26081;DHT22;13991;51.174;4.438;2023-10-08T09:07:56;19.60;99.90
26081;DHT22;13991;51.174;4.438;2023-10-08T09:10:24;19.70;99.90
26081;DHT22;13991;51.174;4.438;2023-10-08T09:12:52;19.90;99.90
26081;DHT22;13991;51.174;4.438;2023-10-08T09:15:20;20.00;99.90
26081;DHT22;13991;51.174;4.438;2023-10-08T09:17:48;20.20;99.90
26081;DHT22;13991;51.174;4.438;2023-10-08T09:20:15;20.30;99.90
26081;DHT22;13991;51.174;4.438;2023-10-08T09:22:40;20.30;99.90
26081;DHT22;13991;51.174;4.438;2023-10-08T09:25:07;20.30;99.90
26081;DHT22;13991;51.174;4.438;2023-10-08T09:27:33;20.40;99.90
26081;DHT22;13991;51.174;4.438;2023-10-08T09:29:59;20.40;99.90
26081;DHT22;13991;51.174;4.438;2023-10-08T09:32:33;20.50;99.90
26081;DHT22;13991;51.174;4.438;2023-10-08T09:35:00;20.50;99.90
26081;DHT22;13991;51.174;4.438;2023-10-08T09:37:25;20.60;99.90
26081;DHT22;13991;51.174;4.438;2023-10-08T09:39:52;20.70;99.90
26081;DHT22;13991;51.174;4.438;2023-10-08T09:42:19;20.70;99.90
26081;DHT22;13991;51.174;4.438;2023-10-08T09:44:48;20.80;99.90
26081;DHT22;13991;51.174;4.438;2023-10-08T09:47:20;20.90;99.90
26081;DHT22;13991;51.174;4.438;2023-10-08T09:52:24;21.00;99.90
26081;DHT22;13991;51.174;4.438;2023-10-08T09:54:59;20.80;99.90
26081;DHT22;13991;51.174;4.438;2023-10-08T09:57:25;20.80;99.90
26081;DHT22;13991;51.174;4.438;2023-10-08T09:59:52;20.60;99.90
26081;DHT22;13991;51.174;4.438;2023-10-08T10:02:19;20.50;99.90
26081;DHT22;13991;51.174;4.438;2023-10-08T10:04:50;20.70;99.90
26081;DHT22;13991;51.174;4.438;2023-10-08T10:07:19;21.10;99.90
26081;DHT22;13991;51.174;4.438;2023-10-08T10:09:49;21.20;99.90
26081;DHT22;13991;51.174;4.438;2023-10-08T10:12:20;21.30;99.90
26081;DHT22;13991;51.174;4.438;2023-10-08T10:14:52;21.20;99.90
26081;DHT22;13991;51.174;4.438;2023-10-08T10:17:27;20.90;99.90
26081;DHT22;13991;51.174;4.438;2023-10-08T10:19:59;21.20;99.90
26081;DHT22;13991;51.174;4.438;2023-10-08T10:22:31;21.40;99.90
26081;DHT22;13991;51.174;4.438;2023-10-08T10:24:58;21.50;99.90
26081;DHT22;13991;51.174;4.438;2023-10-08T10:27:29;21.50;99.90
26081;DHT22;13991;51.174;4.438;2023-10-08T10:30:02;21.40;99.90
26081;DHT22;13991;51.174;4.438;2023-10-08T10:32:34;21.80;99.90
26081;DHT22;13991;51.174;4.438;2023-10-08T10:35:00;21.90;99.90
26081;DHT22;13991;51.174;4.438;2023-10-08T10:37:29;22.10;99.90
26081;DHT22;13991;51.174;4.438;2023-10-08T10:40:06;22.20;99.90
26081;DHT22;13991;51.174;4.438;2023-10-08T10:42:36;22.20;99.90
26081;DHT22;13991;51.174;4.438;2023-10-08T10:45:13;22.20;99.90
26081;DHT22;13991;51.174;4.438;2023-10-08T10:47:59;22.30;99.90
26081;DHT22;13991;51.174;4.438;2023-10-08T10:50:40;22.40;99.90
26081;DHT22;13991;51.174;4.438;2023-10-08T10:53:26;22.50;99.90
26081;DHT22;13991;51.174;4.438;2023-10-08T10:55:55;22.50;99.90
26081;DHT22;13991;51.174;4.438;2023-10-08T10:58:25;22.50;99.90
26081;DHT22;13991;51.174;4.438;2023-10-08T11:00:54;22.70;99.90
26081;DHT22;13991;51.174;4.438;2023-10-08T11:03:24;22.90;99.90
26081;DHT22;13991;51.174;4.438;2023-10-08T11:05:54;22.90;99.90
26081;DHT22;13991;51.174;4.438;2023-10-08T11:08:25;22.90;99.90
26081;DHT22;13991;51.174;4.438;2023-10-08T11:10:52;22.90;99.90
26081;DHT22;13991;51.174;4.438;2023-10-08T11:13:24;23.10;99.90
26081;DHT22;13991;51.174;4.438;2023-10-08T11:15:54;23.10;99.90
26081;DHT22;13991;51.174;4.438;2023-10-08T11:18:24;23.30;99.90
26081;DHT22;13991;51.174;4.438;2023-10-08T11:20:50;23.20;99.90
26081;DHT22;13991;51.174;4.438;2023-10-08T11:23:42;23.20;99.90
26081;DHT22;13991;51.174;4.438;2023-10-08T11:26:08;23.40;99.90
26081;DHT22;13991;51.174;4.438;2023-10-08T11:28:37;23.50;99.90
26081;DHT22;13991;51.174;4.438;2023-10-08T11:31:14;23.50;99.90
26081;DHT22;13991;51.174;4.438;2023-10-08T11:33:44;23.30;99.90
26081;DHT22;13991;51.174;4.438;2023-10-08T11:36:23;23.30;99.90
26081;DHT22;13991;51.174;4.438;2023-10-08T11:38:56;23.50;99.90
26081;DHT22;13991;51.174;4.438;2023-10-08T11:41:30;23.50;99.90
26081;DHT22;13991;51.174;4.438;2023-10-08T11:44:07;23.60;99.90
26081;DHT22;13991;51.174;4.438;2023-10-08T11:46:38;23.60;99.90
26081;DHT22;13991;51.174;4.438;2023-10-08T11:49:08;23.70;99.90
26081;DHT22;13991;51.174;4.438;2023-10-08T11:51:43;23.60;99.90
26081;DHT22;13991;51.174;4.438;2023-10-08T11:54:09;23.70;99.90
26081;DHT22;13991;51.174;4.438;2023-10-08T11:56:38;23.70;99.90
26081;DHT22;13991;51.174;4.438;2023-10-08T11:59:04;23.50;99.90
26081;DHT22;13991;51.174;4.438;2023-10-08T12:01:39;23.50;99.90
26081;DHT22;13991;51.174;4.438;2023-10-08T12:04:08;23.60;99.90
26081;DHT22;13991;51.174;4.438;2023-10-08T12:06:42;23.70;99.90
26081;DHT22;13991;51.174;4.438;2023-10-08T12:09:18;23.80;99.90
26081;DHT22;13991;51.174;4.438;2023-10-08T12:11:47;23.90;99.90
26081;DHT22;13991;51.174;4.438;2023-10-08T12:14:13;24.00;99.90
26081;DHT22;13991;51.174;4.438;2023-10-08T12:16:40;24.10;99.90
26081;DHT22;13991;51.174;4.438;2023-10-08T12:19:07;24.10;99.90
26081;DHT22;13991;51.174;4.438;2023-10-08T12:21:42;24.10;99.90
26081;DHT22;13991;51.174;4.438;2023-10-08T12:24:11;24.20;99.90
26081;DHT22;13991;51.174;4.438;2023-10-08T12:26:39;24.30;99.90
26081;DHT22;13991;51.174;4.438;2023-10-08T12:29:14;24.40;99.90
26081;DHT22;13991;51.174;4.438;2023-10-08T12:31:40;24.40;99.90
26081;DHT22;13991;51.174;4.438;2023-10-08T12:34:06;24.40;99.90
26081;DHT22;13991;51.174;4.438;2023-10-08T12:36:32;24.30;99.90
26081;DHT22;13991;51.174;4.438;2023-10-08T12:39:01;24.30;99.90
26081;DHT22;13991;51.174;4.438;2023-10-08T12:41:34;24.00;99.90
26081;DHT22;13991;51.174;4.438;2023-10-08T12:44:04;24.10;99.90
26081;DHT22;13991;51.174;4.438;2023-10-08T12:46:33;24.30;99.90
26081;DHT22;13991;51.174;4.438;2023-10-08T12:48:59;24.30;99.90
26081;DHT22;13991;51.174;4.438;2023-10-08T12:51:27;24.40;99.90
26081;DHT22;13991;51.174;4.438;2023-10-08T12:53:58;24.60;99.90
26081;DHT22;13991;51.174;4.438;2023-10-08T12:56:25;24.70;99.90
26081;DHT22;13991;51.174;4.438;2023-10-08T12:58:58;24.80;99.90
26081;DHT22;13991;51.174;4.438;2023-10-08T13:01:24;24.80;99.90
26081;DHT22;13991;51.174;4.438;2023-10-08T13:03:54;24.70;99.90
26081;DHT22;13991;51.174;4.438;2023-10-08T13:06:26;24.70;99.90
26081;DHT22;13991;51.174;4.438;2023-10-08T13:08:55;24.80;99.90
26081;DHT22;13991;51.174;4.438;2023-10-08T13:11:22;24.70;99.90
26081;DHT22;13991;51.174;4.438;2023-10-08T13:13:58;24.60;99.90
26081;DHT22;13991;51.174;4.438;2023-10-08T13:16:27;24.60;99.90
26081;DHT22;13991;51.174;4.438;2023-10-08T13:18:57;24.40;99.90
26081;DHT22;13991;51.174;4.438;2023-10-08T13:21:24;24.40;99.90
26081;DHT22;13991;51.174;4.438;2023-10-08T13:23:54;24.50;99.90
26081;DHT22;13991;51.174;4.438;2023-10-08T13:26:22;24.60;99.90
26081;DHT22;13991;51.174;4.438;2023-10-08T13:28:50;24.70;99.90
26081;DHT22;13991;51.174;4.438;2023-10-08T13:31:16;24.80;99.90
26081;DHT22;13991;51.174;4.438;2023-10-08T13:33:43;24.80;99.90
26081;DHT22;13991;51.174;4.438;2023-10-08T13:36:11;24.90;99.90
26081;DHT22;13991;51.174;4.438;2023-10-08T13:38:39;25.10;99.90
26081;DHT22;13991;51.174;4.438;2023-10-08T13:41:06;25.20;99.90
26081;DHT22;13991;51.174;4.438;2023-10-08T13:43:41;25.20;99.90
26081;DHT22;13991;51.174;4.438;2023-10-08T13:46:07;25.30;99.90
26081;DHT22;13991;51.174;4.438;2023-10-08T13:48:47;25.20;99.90
26081;DHT22;13991;51.174;4.438;2023-10-08T13:51:21;25.10;99.90
26081;DHT22;13991;51.174;4.438;2023-10-08T13:53:54;25.00;99.90
26081;DHT22;13991;51.174;4.438;2023-10-08T13:56:26;25.10;99.90
26081;DHT22;13991;51.174;4.438;2023-10-08T13:58:53;25.10;99.90
26081;DHT22;13991;51.174;4.438;2023-10-08T14:01:31;25.10;99.90
26081;DHT22;13991;51.174;4.438;2023-10-08T14:03:59;25.20;99.90
26081;DHT22;13991;51.174;4.438;2023-10-08T14:06:31;25.20;99.90
26081;DHT22;13991;51.174;4.438;2023-10-08T14:08:57;25.20;99.90
26081;DHT22;13991;51.174;4.438;2023-10-08T14:11:23;24.80;99.90
26081;DHT22;13991;51.174;4.438;2023-10-08T14:13:58;24.80;99.90
26081;DHT22;13991;51.174;4.438;2023-10-08T14:16:27;24.90;99.90
26081;DHT22;13991;51.174;4.438;2023-10-08T14:18:57;24.90;99.90
26081;DHT22;13991;51.174;4.438;2023-10-08T14:21:25;25.00;99.90
26081;DHT22;13991;51.174;4.438;2023-10-08T14:23:58;25.00;99.90
26081;DHT22;13991;51.174;4.438;2023-10-08T14:26:29;24.90;99.90
26081;DHT22;13991;51.174;4.438;2023-10-08T14:29:02;25.00;99.90
26081;DHT22;13991;51.174;4.438;2023-10-08T14:31:33;25.00;99.90
26081;DHT22;13991;51.174;4.438;2023-10-08T14:34:04;25.10;99.90
26081;DHT22;13991;51.174;4.438;2023-10-08T14:36:46;25.20;99.90
26081;DHT22;13991;51.174;4.438;2023-10-08T14:39:32;24.90;99.90
26081;DHT22;13991;51.174;4.438;2023-10-08T14:42:20;24.70;99.90
26081;DHT22;13991;51.174;4.438;2023-10-08T14:45:04;24.20;99.90
26081;DHT22;13991;51.174;4.438;2023-10-08T14:47:45;24.40;99.90
26081;DHT22;13991;51.174;4.438;2023-10-08T14:50:11;24.30;99.90
26081;DHT22;13991;51.174;4.438;2023-10-08T14:52:45;24.20;99.90
26081;DHT22;13991;51.174;4.438;2023-10-08T14:55:14;24.20;99.90
26081;DHT22;13991;51.174;4.438;2023-10-08T14:57:41;24.10;99.90
26081;DHT22;13991;51.174;4.438;2023-10-08T15:00:10;24.00;99.90
26081;DHT22;13991;51.174;4.438;2023-10-08T15:02:37;23.70;99.90
26081;DHT22;13991;51.174;4.438;2023-10-08T15:05:06;23.70;99.90
26081;DHT22;13991;51.174;4.438;2023-10-08T15:07:35;23.80;99.90
26081;DHT22;13991;51.174;4.438;2023-10-08T15:10:03;23.80;99.90
26081;DHT22;13991;51.174;4.438;2023-10-08T15:12:29;23.80;99.90
26081;DHT22;13991;51.174;4.438;2023-10-08T15:15:00;23.80;99.90
26081;DHT22;13991;51.174;4.438;2023-10-08T15:17:39;23.80;99.90
26081;DHT22;13991;51.174;4.438;2023-10-08T15:20:06;23.70;99.90
26081;DHT22;13991;51.174;4.438;2023-10-08T15:22:32;23.70;99.90
26081;DHT22;13991;51.174;4.438;2023-10-08T15:24:58;23.80;99.90
26081;DHT22;13991;51.174;4.438;2023-10-08T15:27:23;23.70;99.90
26081;DHT22;13991;51.174;4.438;2023-10-08T15:29:49;23.70;99.90
26081;DHT22;13991;51.174;4.438;2023-10-08T15:32:15;23.70;99.90
26081;DHT22;13991;51.174;4.438;2023-10-08T15:34:40;23.60;99.90
26081;DHT22;13991;51.174;4.438;2023-10-08T15:37:07;23.60;99.90
26081;DHT22;13991;51.174;4.438;2023-10-08T15:39:32;23.70;99.90
26081;DHT22;13991;51.174;4.438;2023-10-08T15:41:58;23.70;99.90
26081;DHT22;13991;51.174;4.438;2023-10-08T15:44:24;23.80;99.90
26081;DHT22;13991;51.174;4.438;2023-10-08T15:46:49;23.80;99.90
26081;DHT22;13991;51.174;4.438;2023-10-08T15:49:16;23.90;99.90
26081;DHT22;13991;51.174;4.438;2023-10-08T15:51:45;23.80;99.90
26081;DHT22;13991;51.174;4.438;2023-10-08T15:54:12;23.70;99.90
26081;DHT22;13991;51.174;4.438;2023-10-08T15:56:38;23.60;99.90
26081;DHT22;13991;51.174;4.438;2023-10-08T15:59:03;23.50;99.90
26081;DHT22;13991;51.174;4.438;2023-10-08T16:01:29;23.30;99.90